sensor_id;sensor_type;location;lat;lon;timestamp;P1;durP1;ratioP1;P2;durP2;ratioP2
20241;SDS011;10279;46.388;8.116;2023-10-31T00:01:10;0.30;;;0.30;;
20241;SDS011;10279;46.388;8.116;2023-10-31T00:03:37;0.40;;;0.40;;
20241;SDS011;10279;46.388;8.116;2023-10-31T00:06:07;0.73;;;0.30;;
20241;SDS011;10279;46.388;8.116;2023-10-31T00:08:34;0.30;;;0.30;;
20241;SDS011;10279;46.388;8.116;2023-10-31T00:11:01;4.20;;;0.57;;
20241;SDS011;10279;46.388;8.116;2023-10-31T00:13:29;1.17;;;0.50;;
20241;SDS011;10279;46.388;8.116;2023-10-31T00:15:56;0.57;;;0.37;;
20241;SDS011;10279;46.388;8.116;2023-10-31T00:18:24;1.10;;;0.43;;
20241;SDS011;10279;46.388;8.116;2023-10-31T00:20:51;0.27;;;0.20;;
20241;SDS011;10279;46.388;8.116;2023-10-31T00:23:18;0.40;;;0.30;;
20241;SDS011;10279;46.388;8.116;2023-10-31T00:25:46;3.30;;;0.53;;
20241;SDS011;10279;46.388;8.116;2023-10-31T00:28:13;1.07;;;0.60;;
20241;SDS011;10279;46.388;8.116;2023-10-31T00:30:40;1.50;;;0.80;;
20241;SDS011;10279;46.388;8.116;2023-10-31T00:33:08;0.53;;;0.50;;
20241;SDS011;10279;46.388;8.116;2023-10-31T00:35:35;0.97;;;0.40;;
20241;SDS011;10279;46.388;8.116;2023-10-31T00:38:03;0.43;;;0.43;;
20241;SDS011;10279;46.388;8.116;2023-10-31T00:40:31;0.30;;;0.30;;
20241;SDS011;10279;46.388;8.116;2023-10-31T00:42:58;0.90;;;0.47;;
20241;SDS011;10279;46.388;8.116;2023-10-31T00:45:27;0.30;;;0.27;;
20241;SDS011;10279;46.388;8.116;2023-10-31T00:47:54;0.63;;;0.27;;
20241;SDS011;10279;46.388;8.116;2023-10-31T00:50:21;0.70;;;0.40;;
20241;SDS011;10279;46.388;8.116;2023-10-31T00:52:49;1.13;;;0.30;;
20241;SDS011;10279;46.388;8.116;2023-10-31T00:55:16;0.30;;;0.30;;
20241;SDS011;10279;46.388;8.116;2023-10-31T00:57:44;1.57;;;0.30;;
20241;SDS011;10279;46.388;8.116;2023-10-31T01:00:11;0.80;;;0.40;;
20241;SDS011;10279;46.388;8.116;2023-10-31T01:02:39;0.87;;;0.40;;
20241;SDS011;10279;46.388;8.116;2023-10-31T01:05:06;0.60;;;0.47;;
20241;SDS011;10279;46.388;8.116;2023-10-31T01:07:34;0.50;;;0.50;;
20241;SDS011;10279;46.388;8.116;2023-10-31T01:10:02;2.43;;;0.50;;
20241;SDS011;10279;46.388;8.116;2023-10-31T01:12:30;0.50;;;0.50;;
20241;SDS011;10279;46.388;8.116;2023-10-31T01:14:57;0.83;;;0.50;;
20241;SDS011;10279;46.388;8.116;2023-10-31T01:17:25;0.30;;;0.30;;
20241;SDS011;10279;46.388;8.116;2023-10-31T01:19:52;0.40;;;0.40;;
20241;SDS011;10279;46.388;8.116;2023-10-31T01:22:19;0.53;;;0.30;;
20241;SDS011;10279;46.388;8.116;2023-10-31T01:24:47;0.60;;;0.40;;
20241;SDS011;10279;46.388;8.116;2023-10-31T01:27:14;0.80;;;0.50;;
20241;SDS011;10279;46.388;8.116;2023-10-31T01:29:41;0.97;;;0.47;;
20241;SDS011;10279;46.388;8.116;2023-10-31T01:32:09;0.63;;;0.50;;
20241;SDS011;10279;46.388;8.116;2023-10-31T01:34:47;1.23;;;0.60;;
20241;SDS011;10279;46.388;8.116;2023-10-31T01:37:15;0.43;;;0.43;;
20241;SDS011;10279;46.388;8.116;2023-10-31T01:39:42;0.73;;;0.67;;
20241;SDS011;10279;46.388;8.116;2023-10-31T01:42:09;2.23;;;0.60;;
20241;SDS011;10279;46.388;8.116;2023-10-31T01:44:36;0.60;;;0.60;;
20241;SDS011;10279;46.388;8.116;2023-10-31T01:47:04;1.10;;;0.80;;
20241;SDS011;10279;46.388;8.116;2023-10-31T01:49:31;0.80;;;0.80;;
20241;SDS011;10279;46.388;8.116;2023-10-31T01:52:00;2.30;;;0.90;;
20241;SDS011;10279;46.388;8.116;2023-10-31T01:54:28;0.80;;;0.70;;
20241;SDS011;10279;46.388;8.116;2023-10-31T01:56:56;1.07;;;0.70;;
20241;SDS011;10279;46.388;8.116;2023-10-31T01:59:25;1.33;;;0.80;;
20241;SDS011;10279;46.388;8.116;2023-10-31T02:01:52;1.27;;;0.80;;
20241;SDS011;10279;46.388;8.116;2023-10-31T02:04:24;1.70;;;0.60;;
20241;SDS011;10279;46.388;8.116;2023-10-31T02:06:51;0.60;;;0.60;;
20241;SDS011;10279;46.388;8.116;2023-10-31T02:09:19;1.20;;;0.60;;
20241;SDS011;10279;46.388;8.116;2023-10-31T02:11:51;0.93;;;0.57;;
20241;SDS011;10279;46.388;8.116;2023-10-31T02:14:18;0.50;;;0.40;;
20241;SDS011;10279;46.388;8.116;2023-10-31T02:16:48;0.53;;;0.53;;
20241;SDS011;10279;46.388;8.116;2023-10-31T02:19:16;0.40;;;0.40;;
20241;SDS011;10279;46.388;8.116;2023-10-31T02:21:47;0.40;;;0.40;;
20241;SDS011;10279;46.388;8.116;2023-10-31T02:24:14;0.90;;;0.53;;
20241;SDS011;10279;46.388;8.116;2023-10-31T02:26:41;0.40;;;0.40;;
20241;SDS011;10279;46.388;8.116;2023-10-31T02:29:09;0.50;;;0.40;;
20241;SDS011;10279;46.388;8.116;2023-10-31T02:31:37;0.50;;;0.50;;
20241;SDS011;10279;46.388;8.116;2023-10-31T02:34:05;0.77;;;0.40;;
20241;SDS011;10279;46.388;8.116;2023-10-31T02:36:32;0.53;;;0.40;;
20241;SDS011;10279;46.388;8.116;2023-10-31T02:39:00;0.30;;;0.30;;
20241;SDS011;10279;46.388;8.116;2023-10-31T02:41:28;0.30;;;0.30;;
20241;SDS011;10279;46.388;8.116;2023-10-31T02:43:56;0.83;;;0.40;;
20241;SDS011;10279;46.388;8.116;2023-10-31T02:46:24;0.73;;;0.40;;
20241;SDS011;10279;46.388;8.116;2023-10-31T02:48:51;0.60;;;0.40;;
20241;SDS011;10279;46.388;8.116;2023-10-31T02:51:18;0.57;;;0.40;;
20241;SDS011;10279;46.388;8.116;2023-10-31T02:53:46;0.60;;;0.50;;
20241;SDS011;10279;46.388;8.116;2023-10-31T02:56:13;0.40;;;0.40;;
20241;SDS011;10279;46.388;8.116;2023-10-31T02:58:40;0.93;;;0.60;;
20241;SDS011;10279;46.388;8.116;2023-10-31T03:01:08;1.03;;;0.40;;
20241;SDS011;10279;46.388;8.116;2023-10-31T03:03:35;1.03;;;0.50;;
20241;SDS011;10279;46.388;8.116;2023-10-31T03:06:04;0.30;;;0.30;;
20241;SDS011;10279;46.388;8.116;2023-10-31T03:08:32;0.50;;;0.50;;
20241;SDS011;10279;46.388;8.116;2023-10-31T03:10:59;0.30;;;0.30;;
20241;SDS011;10279;46.388;8.116;2023-10-31T03:13:26;0.30;;;0.30;;
20241;SDS011;10279;46.388;8.116;2023-10-31T03:15:55;0.57;;;0.40;;
20241;SDS011;10279;46.388;8.116;2023-10-31T03:18:22;0.47;;;0.47;;
20241;SDS011;10279;46.388;8.116;2023-10-31T03:20:49;0.67;;;0.43;;
20241;SDS011;10279;46.388;8.116;2023-10-31T03:23:17;0.67;;;0.50;;
20241;SDS011;10279;46.388;8.116;2023-10-31T03:25:44;0.40;;;0.37;;
20241;SDS011;10279;46.388;8.116;2023-10-31T03:28:20;0.37;;;0.37;;
20241;SDS011;10279;46.388;8.116;2023-10-31T03:30:50;0.30;;;0.30;;
20241;SDS011;10279;46.388;8.116;2023-10-31T03:33:18;0.40;;;0.40;;
20241;SDS011;10279;46.388;8.116;2023-10-31T03:35:45;0.87;;;0.30;;
20241;SDS011;10279;46.388;8.116;2023-10-31T03:38:13;2.10;;;0.30;;
20241;SDS011;10279;46.388;8.116;2023-10-31T03:40:41;0.33;;;0.33;;
20241;SDS011;10279;46.388;8.116;2023-10-31T03:43:08;0.33;;;0.33;;
20241;SDS011;10279;46.388;8.116;2023-10-31T03:45:35;0.40;;;0.40;;
20241;SDS011;10279;46.388;8.116;2023-10-31T03:48:03;0.37;;;0.30;;
20241;SDS011;10279;46.388;8.116;2023-10-31T03:50:30;0.67;;;0.40;;
20241;SDS011;10279;46.388;8.116;2023-10-31T03:52:57;0.20;;;0.20;;
20241;SDS011;10279;46.388;8.116;2023-10-31T03:55:25;0.33;;;0.30;;
20241;SDS011;10279;46.388;8.116;2023-10-31T03:57:52;0.20;;;0.20;;
20241;SDS011;10279;46.388;8.116;2023-10-31T04:00:19;2.70;;;0.50;;
20241;SDS011;10279;46.388;8.116;2023-10-31T04:02:47;1.33;;;0.50;;
20241;SDS011;10279;46.388;8.116;2023-10-31T04:05:14;0.20;;;0.20;;
20241;SDS011;10279;46.388;8.116;2023-10-31T04:07:42;0.60;;;0.30;;
20241;SDS011;10279;46.388;8.116;2023-10-31T04:10:09;0.53;;;0.30;;
20241;SDS011;10279;46.388;8.116;2023-10-31T04:12:37;0.60;;;0.30;;
20241;SDS011;10279;46.388;8.116;2023-10-31T04:15:05;0.17;;;0.17;;
20241;SDS011;10279;46.388;8.116;2023-10-31T04:17:32;0.40;;;0.37;;
20241;SDS011;10279;46.388;8.116;2023-10-31T04:20:00;0.30;;;0.30;;
20241;SDS011;10279;46.388;8.116;2023-10-31T04:22:28;0.20;;;0.20;;
20241;SDS011;10279;46.388;8.116;2023-10-31T04:24:55;0.47;;;0.30;;
20241;SDS011;10279;46.388;8.116;2023-10-31T04:27:23;0.50;;;0.30;;
20241;SDS011;10279;46.388;8.116;2023-10-31T04:29:50;0.50;;;0.30;;
20241;SDS011;10279;46.388;8.116;2023-10-31T04:32:17;0.30;;;0.30;;
20241;SDS011;10279;46.388;8.116;2023-10-31T04:34:44;1.17;;;0.40;;
20241;SDS011;10279;46.388;8.116;2023-10-31T04:37:12;0.30;;;0.30;;
20241;SDS011;10279;46.388;8.116;2023-10-31T04:39:39;0.77;;;0.40;;
20241;SDS011;10279;46.388;8.116;2023-10-31T04:42:06;0.30;;;0.30;;
20241;SDS011;10279;46.388;8.116;2023-10-31T04:44:33;0.27;;;0.20;;
20241;SDS011;10279;46.388;8.116;2023-10-31T04:47:01;0.27;;;0.23;;
20241;SDS011;10279;46.388;8.116;2023-10-31T04:49:29;0.30;;;0.30;;
20241;SDS011;10279;46.388;8.116;2023-10-31T04:51:56;0.90;;;0.30;;
20241;SDS011;10279;46.388;8.116;2023-10-31T04:54:23;0.40;;;0.30;;
20241;SDS011;10279;46.388;8.116;2023-10-31T04:56:51;1.10;;;0.20;;
20241;SDS011;10279;46.388;8.116;2023-10-31T04:59:18;0.97;;;0.43;;
20241;SDS011;10279;46.388;8.116;2023-10-31T05:01:49;0.30;;;0.30;;
20241;SDS011;10279;46.388;8.116;2023-10-31T05:04:17;0.20;;;0.20;;
20241;SDS011;10279;46.388;8.116;2023-10-31T05:06:45;0.27;;;0.20;;
20241;SDS011;10279;46.388;8.116;2023-10-31T05:09:13;0.40;;;0.30;;
20241;SDS011;10279;46.388;8.116;2023-10-31T05:11:42;1.43;;;0.30;;
20241;SDS011;10279;46.388;8.116;2023-10-31T05:14:10;0.57;;;0.20;;
20241;SDS011;10279;46.388;8.116;2023-10-31T05:16:41;0.50;;;0.20;;
20241;SDS011;10279;46.388;8.116;2023-10-31T05:19:09;0.43;;;0.30;;
20241;SDS011;10279;46.388;8.116;2023-10-31T05:21:37;0.23;;;0.20;;
20241;SDS011;10279;46.388;8.116;2023-10-31T05:24:05;0.40;;;0.40;;
20241;SDS011;10279;46.388;8.116;2023-10-31T05:26:33;0.30;;;0.20;;
20241;SDS011;10279;46.388;8.116;2023-10-31T05:29:00;0.67;;;0.53;;
20241;SDS011;10279;46.388;8.116;2023-10-31T05:31:28;2.27;;;0.30;;
20241;SDS011;10279;46.388;8.116;2023-10-31T05:33:55;0.30;;;0.30;;
20241;SDS011;10279;46.388;8.116;2023-10-31T05:36:23;0.23;;;0.20;;
20241;SDS011;10279;46.388;8.116;2023-10-31T05:38:51;1.03;;;0.20;;
20241;SDS011;10279;46.388;8.116;2023-10-31T05:41:18;1.10;;;0.30;;
20241;SDS011;10279;46.388;8.116;2023-10-31T05:43:46;0.30;;;0.30;;
20241;SDS011;10279;46.388;8.116;2023-10-31T05:46:13;0.30;;;0.30;;
20241;SDS011;10279;46.388;8.116;2023-10-31T05:48:43;0.70;;;0.40;;
20241;SDS011;10279;46.388;8.116;2023-10-31T05:51:15;1.13;;;0.40;;
20241;SDS011;10279;46.388;8.116;2023-10-31T05:53:45;0.50;;;0.30;;
20241;SDS011;10279;46.388;8.116;2023-10-31T05:56:14;1.03;;;0.20;;
20241;SDS011;10279;46.388;8.116;2023-10-31T05:58:42;0.50;;;0.40;;
20241;SDS011;10279;46.388;8.116;2023-10-31T06:01:10;0.57;;;0.33;;
20241;SDS011;10279;46.388;8.116;2023-10-31T06:03:37;0.40;;;0.40;;
20241;SDS011;10279;46.388;8.116;2023-10-31T06:06:10;0.30;;;0.30;;
20241;SDS011;10279;46.388;8.116;2023-10-31T06:08:39;0.40;;;0.30;;
20241;SDS011;10279;46.388;8.116;2023-10-31T06:11:07;1.60;;;0.40;;
20241;SDS011;10279;46.388;8.116;2023-10-31T06:13:35;1.40;;;0.30;;
20241;SDS011;10279;46.388;8.116;2023-10-31T06:16:03;0.60;;;0.30;;
20241;SDS011;10279;46.388;8.116;2023-10-31T06:18:31;0.30;;;0.30;;
20241;SDS011;10279;46.388;8.116;2023-10-31T06:20:58;2.13;;;0.30;;
20241;SDS011;10279;46.388;8.116;2023-10-31T06:23:26;0.40;;;0.40;;
20241;SDS011;10279;46.388;8.116;2023-10-31T06:25:57;1.00;;;0.40;;
20241;SDS011;10279;46.388;8.116;2023-10-31T06:28:25;1.57;;;0.57;;
20241;SDS011;10279;46.388;8.116;2023-10-31T06:30:52;2.40;;;0.50;;
20241;SDS011;10279;46.388;8.116;2023-10-31T06:33:20;1.27;;;0.37;;
20241;SDS011;10279;46.388;8.116;2023-10-31T06:35:47;1.43;;;0.30;;
20241;SDS011;10279;46.388;8.116;2023-10-31T06:38:14;0.47;;;0.40;;
20241;SDS011;10279;46.388;8.116;2023-10-31T06:40:42;5.43;;;0.50;;
20241;SDS011;10279;46.388;8.116;2023-10-31T06:43:09;0.47;;;0.40;;
20241;SDS011;10279;46.388;8.116;2023-10-31T06:45:37;0.87;;;0.40;;
20241;SDS011;10279;46.388;8.116;2023-10-31T06:48:04;1.63;;;0.43;;
20241;SDS011;10279;46.388;8.116;2023-10-31T06:50:33;0.73;;;0.23;;
20241;SDS011;10279;46.388;8.116;2023-10-31T06:53:01;0.60;;;0.40;;
20241;SDS011;10279;46.388;8.116;2023-10-31T06:55:29;0.63;;;0.30;;
20241;SDS011;10279;46.388;8.116;2023-10-31T06:57:57;0.20;;;0.20;;
20241;SDS011;10279;46.388;8.116;2023-10-31T07:00:24;0.73;;;0.30;;
20241;SDS011;10279;46.388;8.116;2023-10-31T07:02:51;0.30;;;0.30;;
20241;SDS011;10279;46.388;8.116;2023-10-31T07:05:19;0.80;;;0.30;;
20241;SDS011;10279;46.388;8.116;2023-10-31T07:07:47;1.00;;;0.30;;
20241;SDS011;10279;46.388;8.116;2023-10-31T07:10:14;0.30;;;0.30;;
20241;SDS011;10279;46.388;8.116;2023-10-31T07:12:42;0.80;;;0.30;;
20241;SDS011;10279;46.388;8.116;2023-10-31T07:15:09;1.10;;;0.40;;
20241;SDS011;10279;46.388;8.116;2023-10-31T07:17:36;2.47;;;0.60;;
20241;SDS011;10279;46.388;8.116;2023-10-31T07:20:05;0.80;;;0.40;;
20241;SDS011;10279;46.388;8.116;2023-10-31T07:22:33;1.37;;;0.40;;
20241;SDS011;10279;46.388;8.116;2023-10-31T07:25:00;0.73;;;0.33;;
20241;SDS011;10279;46.388;8.116;2023-10-31T07:27:30;0.40;;;0.40;;
20241;SDS011;10279;46.388;8.116;2023-10-31T07:29:57;0.83;;;0.50;;
20241;SDS011;10279;46.388;8.116;2023-10-31T07:32:25;0.30;;;0.30;;
20241;SDS011;10279;46.388;8.116;2023-10-31T07:34:52;0.50;;;0.23;;
20241;SDS011;10279;46.388;8.116;2023-10-31T07:37:20;0.63;;;0.40;;
20241;SDS011;10279;46.388;8.116;2023-10-31T07:39:47;1.03;;;0.30;;
20241;SDS011;10279;46.388;8.116;2023-10-31T07:42:15;0.90;;;0.30;;
20241;SDS011;10279;46.388;8.116;2023-10-31T07:44:42;3.67;;;0.50;;
20241;SDS011;10279;46.388;8.116;2023-10-31T07:47:10;0.80;;;0.30;;
20241;SDS011;10279;46.388;8.116;2023-10-31T07:49:37;1.10;;;0.37;;
20241;SDS011;10279;46.388;8.116;2023-10-31T07:52:05;1.07;;;0.30;;
20241;SDS011;10279;46.388;8.116;2023-10-31T07:54:32;0.87;;;0.70;;
20241;SDS011;10279;46.388;8.116;2023-10-31T07:56:59;0.80;;;0.40;;
20241;SDS011;10279;46.388;8.116;2023-10-31T07:59:27;2.17;;;0.43;;
20241;SDS011;10279;46.388;8.116;2023-10-31T08:01:54;0.40;;;0.30;;
20241;SDS011;10279;46.388;8.116;2023-10-31T08:04:22;1.17;;;0.30;;
20241;SDS011;10279;46.388;8.116;2023-10-31T08:06:49;2.43;;;0.43;;
20241;SDS011;10279;46.388;8.116;2023-10-31T08:09:16;0.73;;;0.50;;
20241;SDS011;10279;46.388;8.116;2023-10-31T08:11:44;1.17;;;0.40;;
20241;SDS011;10279;46.388;8.116;2023-10-31T08:14:11;0.20;;;0.20;;
20241;SDS011;10279;46.388;8.116;2023-10-31T08:16:38;1.00;;;0.30;;
20241;SDS011;10279;46.388;8.116;2023-10-31T08:19:06;0.57;;;0.30;;
20241;SDS011;10279;46.388;8.116;2023-10-31T08:21:33;0.40;;;0.30;;
20241;SDS011;10279;46.388;8.116;2023-10-31T08:24:01;0.60;;;0.30;;
20241;SDS011;10279;46.388;8.116;2023-10-31T08:26:30;0.20;;;0.20;;
20241;SDS011;10279;46.388;8.116;2023-10-31T08:28:58;0.50;;;0.20;;
20241;SDS011;10279;46.388;8.116;2023-10-31T08:31:26;0.53;;;0.30;;
20241;SDS011;10279;46.388;8.116;2023-10-31T08:33:53;0.30;;;0.20;;
20241;SDS011;10279;46.388;8.116;2023-10-31T08:36:21;1.57;;;0.30;;
20241;SDS011;10279;46.388;8.116;2023-10-31T08:38:48;1.70;;;0.37;;
20241;SDS011;10279;46.388;8.116;2023-10-31T08:41:16;0.30;;;0.30;;
20241;SDS011;10279;46.388;8.116;2023-10-31T08:43:46;1.47;;;0.57;;
20241;SDS011;10279;46.388;8.116;2023-10-31T08:46:14;1.13;;;0.30;;
20241;SDS011;10279;46.388;8.116;2023-10-31T08:48:42;1.70;;;0.40;;
20241;SDS011;10279;46.388;8.116;2023-10-31T08:51:09;0.50;;;0.30;;
20241;SDS011;10279;46.388;8.116;2023-10-31T08:53:37;0.80;;;0.20;;
20241;SDS011;10279;46.388;8.116;2023-10-31T08:56:04;0.40;;;0.30;;
20241;SDS011;10279;46.388;8.116;2023-10-31T08:58:32;0.83;;;0.47;;
20241;SDS011;10279;46.388;8.116;2023-10-31T09:00:59;1.00;;;0.30;;
20241;SDS011;10279;46.388;8.116;2023-10-31T09:03:26;0.63;;;0.47;;
20241;SDS011;10279;46.388;8.116;2023-10-31T09:05:54;1.60;;;0.23;;
20241;SDS011;10279;46.388;8.116;2023-10-31T09:08:21;0.40;;;0.30;;
20241;SDS011;10279;46.388;8.116;2023-10-31T09:10:49;1.23;;;0.30;;
20241;SDS011;10279;46.388;8.116;2023-10-31T09:13:16;0.80;;;0.40;;
20241;SDS011;10279;46.388;8.116;2023-10-31T09:15:44;1.07;;;0.40;;
20241;SDS011;10279;46.388;8.116;2023-10-31T09:18:12;1.07;;;0.30;;
20241;SDS011;10279;46.388;8.116;2023-10-31T09:20:40;1.03;;;0.40;;
20241;SDS011;10279;46.388;8.116;2023-10-31T09:23:07;0.90;;;0.57;;
20241;SDS011;10279;46.388;8.116;2023-10-31T09:25:35;0.53;;;0.50;;
20241;SDS011;10279;46.388;8.116;2023-10-31T09:28:02;0.70;;;0.60;;
20241;SDS011;10279;46.388;8.116;2023-10-31T09:30:29;1.30;;;0.30;;
20241;SDS011;10279;46.388;8.116;2023-10-31T09:32:57;2.30;;;0.97;;
20241;SDS011;10279;46.388;8.116;2023-10-31T09:35:25;0.97;;;0.87;;
20241;SDS011;10279;46.388;8.116;2023-10-31T09:37:53;1.90;;;0.80;;
20241;SDS011;10279;46.388;8.116;2023-10-31T09:40:21;2.70;;;1.00;;
20241;SDS011;10279;46.388;8.116;2023-10-31T09:42:49;1.07;;;0.60;;
20241;SDS011;10279;46.388;8.116;2023-10-31T09:45:16;1.50;;;0.60;;
20241;SDS011;10279;46.388;8.116;2023-10-31T09:47:44;0.43;;;0.40;;
20241;SDS011;10279;46.388;8.116;2023-10-31T09:50:12;0.40;;;0.40;;
20241;SDS011;10279;46.388;8.116;2023-10-31T09:52:40;2.50;;;0.67;;
20241;SDS011;10279;46.388;8.116;2023-10-31T09:55:07;0.50;;;0.50;;
20241;SDS011;10279;46.388;8.116;2023-10-31T09:57:35;0.50;;;0.50;;
20241;SDS011;10279;46.388;8.116;2023-10-31T10:00:03;0.57;;;0.40;;
20241;SDS011;10279;46.388;8.116;2023-10-31T10:02:31;1.27;;;0.50;;
20241;SDS011;10279;46.388;8.116;2023-10-31T10:04:58;2.00;;;0.40;;
20241;SDS011;10279;46.388;8.116;2023-10-31T10:07:26;0.70;;;0.50;;
20241;SDS011;10279;46.388;8.116;2023-10-31T10:09:53;1.70;;;0.73;;
20241;SDS011;10279;46.388;8.116;2023-10-31T10:12:23;1.67;;;0.50;;
20241;SDS011;10279;46.388;8.116;2023-10-31T10:14:50;2.27;;;0.70;;
20241;SDS011;10279;46.388;8.116;2023-10-31T10:17:22;0.40;;;0.40;;
20241;SDS011;10279;46.388;8.116;2023-10-31T10:20:24;0.80;;;0.50;;
20241;SDS011;10279;46.388;8.116;2023-10-31T10:22:45;1.77;;;0.77;;
20241;SDS011;10279;46.388;8.116;2023-10-31T10:25:16;0.73;;;0.40;;
20241;SDS011;10279;46.388;8.116;2023-10-31T10:27:47;2.20;;;0.50;;
20241;SDS011;10279;46.388;8.116;2023-10-31T10:30:14;0.63;;;0.60;;
20241;SDS011;10279;46.388;8.116;2023-10-31T10:32:43;0.57;;;0.40;;
20241;SDS011;10279;46.388;8.116;2023-10-31T10:35:11;0.73;;;0.30;;
20241;SDS011;10279;46.388;8.116;2023-10-31T10:37:38;1.33;;;0.37;;
20241;SDS011;10279;46.388;8.116;2023-10-31T10:40:06;0.97;;;0.50;;
20241;SDS011;10279;46.388;8.116;2023-10-31T10:42:46;1.03;;;0.50;;
20241;SDS011;10279;46.388;8.116;2023-10-31T10:45:15;0.60;;;0.60;;
20241;SDS011;10279;46.388;8.116;2023-10-31T10:47:48;1.03;;;0.80;;
20241;SDS011;10279;46.388;8.116;2023-10-31T10:50:19;1.20;;;0.60;;
20241;SDS011;10279;46.388;8.116;2023-10-31T10:52:49;1.83;;;0.47;;
20241;SDS011;10279;46.388;8.116;2023-10-31T10:55:29;0.77;;;0.50;;
20241;SDS011;10279;46.388;8.116;2023-10-31T11:00:35;1.67;;;0.40;;
20241;SDS011;10279;46.388;8.116;2023-10-31T11:03:03;0.67;;;0.40;;
20241;SDS011;10279;46.388;8.116;2023-10-31T11:05:32;0.47;;;0.30;;
20241;SDS011;10279;46.388;8.116;2023-10-31T11:08:02;0.40;;;0.30;;
20241;SDS011;10279;46.388;8.116;2023-10-31T11:10:30;0.50;;;0.37;;
20241;SDS011;10279;46.388;8.116;2023-10-31T11:12:58;0.47;;;0.37;;
20241;SDS011;10279;46.388;8.116;2023-10-31T11:15:26;0.53;;;0.40;;
20241;SDS011;10279;46.388;8.116;2023-10-31T11:17:54;0.50;;;0.40;;
20241;SDS011;10279;46.388;8.116;2023-10-31T11:20:24;0.80;;;0.50;;
20241;SDS011;10279;46.388;8.116;2023-10-31T11:22:54;0.90;;;0.60;;
20241;SDS011;10279;46.388;8.116;2023-10-31T11:25:27;1.27;;;0.40;;
20241;SDS011;10279;46.388;8.116;2023-10-31T11:28:12;2.37;;;0.60;;
20241;SDS011;10279;46.388;8.116;2023-10-31T11:30:41;0.67;;;0.30;;
20241;SDS011;10279;46.388;8.116;2023-10-31T11:33:12;0.40;;;0.30;;
20241;SDS011;10279;46.388;8.116;2023-10-31T11:35:41;1.10;;;0.40;;
20241;SDS011;10279;46.388;8.116;2023-10-31T11:38:11;0.60;;;0.30;;
20241;SDS011;10279;46.388;8.116;2023-10-31T11:43:16;2.33;;;0.33;;
20241;SDS011;10279;46.388;8.116;2023-10-31T11:45:44;1.30;;;0.30;;
20241;SDS011;10279;46.388;8.116;2023-10-31T11:48:14;3.53;;;0.30;;
20241;SDS011;10279;46.388;8.116;2023-10-31T11:50:42;1.27;;;0.40;;
20241;SDS011;10279;46.388;8.116;2023-10-31T11:53:13;1.37;;;0.27;;
20241;SDS011;10279;46.388;8.116;2023-10-31T11:55:44;1.50;;;0.33;;
20241;SDS011;10279;46.388;8.116;2023-10-31T12:00:45;0.30;;;0.30;;
20241;SDS011;10279;46.388;8.116;2023-10-31T12:03:14;0.40;;;0.10;;
20241;SDS011;10279;46.388;8.116;2023-10-31T12:05:58;0.50;;;0.50;;
20241;SDS011;10279;46.388;8.116;2023-10-31T12:08:30;1.13;;;0.40;;
20241;SDS011;10279;46.388;8.116;2023-10-31T12:11:09;0.70;;;0.40;;
20241;SDS011;10279;46.388;8.116;2023-10-31T12:13:39;0.27;;;0.27;;
20241;SDS011;10279;46.388;8.116;2023-10-31T12:16:08;2.93;;;0.20;;
20241;SDS011;10279;46.388;8.116;2023-10-31T12:18:37;0.93;;;0.30;;
20241;SDS011;10279;46.388;8.116;2023-10-31T12:21:07;1.73;;;0.30;;
20241;SDS011;10279;46.388;8.116;2023-10-31T12:23:37;0.57;;;0.20;;
20241;SDS011;10279;46.388;8.116;2023-10-31T12:26:04;1.90;;;0.30;;
20241;SDS011;10279;46.388;8.116;2023-10-31T12:28:32;1.50;;;0.20;;
20241;SDS011;10279;46.388;8.116;2023-10-31T12:30:59;0.93;;;0.20;;
20241;SDS011;10279;46.388;8.116;2023-10-31T12:33:29;0.30;;;0.13;;
20241;SDS011;10279;46.388;8.116;2023-10-31T12:35:59;0.30;;;0.23;;
20241;SDS011;10279;46.388;8.116;2023-10-31T12:38:28;2.03;;;0.27;;
20241;SDS011;10279;46.388;8.116;2023-10-31T12:40:56;0.83;;;0.20;;
20241;SDS011;10279;46.388;8.116;2023-10-31T12:43:25;1.80;;;0.20;;
20241;SDS011;10279;46.388;8.116;2023-10-31T12:45:53;0.50;;;0.20;;
20241;SDS011;10279;46.388;8.116;2023-10-31T12:48:23;0.27;;;0.20;;
20241;SDS011;10279;46.388;8.116;2023-10-31T12:51:05;0.87;;;0.20;;
20241;SDS011;10279;46.388;8.116;2023-10-31T12:53:35;1.77;;;0.20;;
20241;SDS011;10279;46.388;8.116;2023-10-31T12:56:02;0.10;;;0.10;;
20241;SDS011;10279;46.388;8.116;2023-10-31T12:58:30;0.20;;;0.20;;
20241;SDS011;10279;46.388;8.116;2023-10-31T13:00:57;0.20;;;0.03;;
20241;SDS011;10279;46.388;8.116;2023-10-31T13:03:25;0.53;;;0.20;;
20241;SDS011;10279;46.388;8.116;2023-10-31T13:05:53;0.10;;;0.10;;
20241;SDS011;10279;46.388;8.116;2023-10-31T13:08:22;0.10;;;0.10;;
20241;SDS011;10279;46.388;8.116;2023-10-31T13:10:50;0.50;;;0.30;;
20241;SDS011;10279;46.388;8.116;2023-10-31T13:13:20;0.20;;;0.20;;
20241;SDS011;10279;46.388;8.116;2023-10-31T13:15:47;0.20;;;0.10;;
20241;SDS011;10279;46.388;8.116;2023-10-31T13:18:15;0.10;;;0.10;;
20241;SDS011;10279;46.388;8.116;2023-10-31T13:20:43;0.13;;;0.10;;
20241;SDS011;10279;46.388;8.116;2023-10-31T13:23:10;0.10;;;0.10;;
20241;SDS011;10279;46.388;8.116;2023-10-31T13:25:37;0.40;;;0.20;;
20241;SDS011;10279;46.388;8.116;2023-10-31T13:28:05;0.10;;;0.10;;
20241;SDS011;10279;46.388;8.116;2023-10-31T13:30:34;0.50;;;0.10;;
20241;SDS011;10279;46.388;8.116;2023-10-31T13:33:01;0.30;;;0.10;;
20241;SDS011;10279;46.388;8.116;2023-10-31T13:35:29;0.23;;;0.10;;
20241;SDS011;10279;46.388;8.116;2023-10-31T13:37:56;1.70;;;0.20;;
20241;SDS011;10279;46.388;8.116;2023-10-31T13:40:23;0.63;;;0.30;;
20241;SDS011;10279;46.388;8.116;2023-10-31T13:42:51;0.10;;;0.10;;
20241;SDS011;10279;46.388;8.116;2023-10-31T13:45:18;0.63;;;0.20;;
20241;SDS011;10279;46.388;8.116;2023-10-31T13:47:45;0.93;;;0.20;;
20241;SDS011;10279;46.388;8.116;2023-10-31T13:50:13;1.07;;;0.20;;
20241;SDS011;10279;46.388;8.116;2023-10-31T13:52:41;0.20;;;0.10;;
20241;SDS011;10279;46.388;8.116;2023-10-31T13:55:08;0.20;;;0.10;;
20241;SDS011;10279;46.388;8.116;2023-10-31T13:57:36;0.10;;;0.10;;
20241;SDS011;10279;46.388;8.116;2023-10-31T14:00:04;0.10;;;0.10;;
20241;SDS011;10279;46.388;8.116;2023-10-31T14:02:35;0.53;;;0.20;;
20241;SDS011;10279;46.388;8.116;2023-10-31T14:05:05;0.20;;;0.10;;
20241;SDS011;10279;46.388;8.116;2023-10-31T14:07:32;0.30;;;0.20;;
20241;SDS011;10279;46.388;8.116;2023-10-31T14:10:01;0.40;;;0.30;;
20241;SDS011;10279;46.388;8.116;2023-10-31T14:12:29;0.10;;;0.10;;
20241;SDS011;10279;46.388;8.116;2023-10-31T14:14:56;0.40;;;0.10;;
20241;SDS011;10279;46.388;8.116;2023-10-31T14:17:24;0.10;;;0.10;;
20241;SDS011;10279;46.388;8.116;2023-10-31T14:19:51;0.10;;;0.10;;
20241;SDS011;10279;46.388;8.116;2023-10-31T14:22:18;1.03;;;0.10;;
20241;SDS011;10279;46.388;8.116;2023-10-31T14:24:46;0.20;;;0.20;;
20241;SDS011;10279;46.388;8.116;2023-10-31T14:27:13;0.00;;;0.00;;
20241;SDS011;10279;46.388;8.116;2023-10-31T14:29:41;0.10;;;0.10;;
20241;SDS011;10279;46.388;8.116;2023-10-31T14:32:09;0.20;;;0.10;;
20241;SDS011;10279;46.388;8.116;2023-10-31T14:34:36;0.10;;;0.10;;
20241;SDS011;10279;46.388;8.116;2023-10-31T14:37:04;0.07;;;0.07;;
20241;SDS011;10279;46.388;8.116;2023-10-31T14:39:32;0.10;;;0.10;;
20241;SDS011;10279;46.388;8.116;2023-10-31T14:42:00;0.10;;;0.10;;
20241;SDS011;10279;46.388;8.116;2023-10-31T14:44:27;0.03;;;0.03;;
20241;SDS011;10279;46.388;8.116;2023-10-31T14:46:55;0.20;;;0.20;;
20241;SDS011;10279;46.388;8.116;2023-10-31T14:49:26;0.00;;;0.00;;
20241;SDS011;10279;46.388;8.116;2023-10-31T14:51:53;0.10;;;0.10;;
20241;SDS011;10279;46.388;8.116;2023-10-31T14:54:21;0.30;;;0.20;;
20241;SDS011;10279;46.388;8.116;2023-10-31T14:56:48;0.10;;;0.10;;
20241;SDS011;10279;46.388;8.116;2023-10-31T14:59:16;0.60;;;0.20;;
20241;SDS011;10279;46.388;8.116;2023-10-31T15:01:43;1.40;;;0.40;;